sensor_id;sensor_type;location;lat;lon;timestamp;temperature;humidity
20845;DHT22;10583;49.084;8.646;2022-12-31T00:02:19;13.80;99.90
20845;DHT22;10583;49.084;8.646;2022-12-31T00:04:45;13.90;99.90
20845;DHT22;10583;49.084;8.646;2022-12-31T00:07:12;13.90;99.90
20845;DHT22;10583;49.084;8.646;2022-12-31T00:09:39;13.90;99.90
20845;DHT22;10583;49.084;8.646;2022-12-31T00:12:06;14.00;99.90
20845;DHT22;10583;49.084;8.646;2022-12-31T00:14:33;14.00;99.90
20845;DHT22;10583;49.084;8.646;2022-12-31T00:17:01;13.90;99.90
20845;DHT22;10583;49.084;8.646;2022-12-31T00:19:27;13.90;99.90
20845;DHT22;10583;49.084;8.646;2022-12-31T00:21:54;13.90;99.90
20845;DHT22;10583;49.084;8.646;2022-12-31T00:24:20;13.90;99.90
20845;DHT22;10583;49.084;8.646;2022-12-31T00:26:47;14.00;99.90
20845;DHT22;10583;49.084;8.646;2022-12-31T00:29:14;14.00;99.90
20845;DHT22;10583;49.084;8.646;2022-12-31T00:31:43;14.00;99.90
20845;DHT22;10583;49.084;8.646;2022-12-31T00:34:11;14.00;99.90
20845;DHT22;10583;49.084;8.646;2022-12-31T00:36:38;14.10;99.90
20845;DHT22;10583;49.084;8.646;2022-12-31T00:39:08;14.20;99.90
20845;DHT22;10583;49.084;8.646;2022-12-31T00:41:36;14.20;99.90
20845;DHT22;10583;49.084;8.646;2022-12-31T00:44:03;14.20;99.90
20845;DHT22;10583;49.084;8.646;2022-12-31T00:46:29;14.20;99.90
20845;DHT22;10583;49.084;8.646;2022-12-31T00:48:57;14.20;99.90
20845;DHT22;10583;49.084;8.646;2022-12-31T00:51:25;14.10;99.90
20845;DHT22;10583;49.084;8.646;2022-12-31T00:53:52;14.00;99.90
20845;DHT22;10583;49.084;8.646;2022-12-31T00:56:21;14.00;99.90
20845;DHT22;10583;49.084;8.646;2022-12-31T00:58:49;14.00;99.90
20845;DHT22;10583;49.084;8.646;2022-12-31T01:01:17;14.10;99.90
20845;DHT22;10583;49.084;8.646;2022-12-31T01:03:46;14.10;99.90
20845;DHT22;10583;49.084;8.646;2022-12-31T01:06:14;14.10;99.90
20845;DHT22;10583;49.084;8.646;2022-12-31T01:08:42;14.20;99.90
20845;DHT22;10583;49.084;8.646;2022-12-31T01:11:10;14.20;99.90
20845;DHT22;10583;49.084;8.646;2022-12-31T01:13:49;14.20;99.90
20845;DHT22;10583;49.084;8.646;2022-12-31T01:16:18;14.30;99.90
20845;DHT22;10583;49.084;8.646;2022-12-31T01:18:45;14.40;99.90
20845;DHT22;10583;49.084;8.646;2022-12-31T01:21:13;14.40;99.90
20845;DHT22;10583;49.084;8.646;2022-12-31T01:23:42;14.30;99.90
20845;DHT22;10583;49.084;8.646;2022-12-31T01:26:11;14.30;99.90
20845;DHT22;10583;49.084;8.646;2022-12-31T01:28:38;14.30;99.90
20845;DHT22;10583;49.084;8.646;2022-12-31T01:31:06;14.30;99.90
20845;DHT22;10583;49.084;8.646;2022-12-31T01:33:34;14.30;99.90
20845;DHT22;10583;49.084;8.646;2022-12-31T01:36:04;14.30;99.90
20845;DHT22;10583;49.084;8.646;2022-12-31T01:38:31;14.30;99.90
20845;DHT22;10583;49.084;8.646;2022-12-31T01:40:59;14.40;99.90
20845;DHT22;10583;49.084;8.646;2022-12-31T01:43:45;14.50;99.90
20845;DHT22;10583;49.084;8.646;2022-12-31T01:46:21;14.50;99.90
20845;DHT22;10583;49.084;8.646;2022-12-31T01:48:51;14.50;99.90
20845;DHT22;10583;49.084;8.646;2022-12-31T01:51:20;14.40;99.90
20845;DHT22;10583;49.084;8.646;2022-12-31T01:53:47;14.40;99.90
20845;DHT22;10583;49.084;8.646;2022-12-31T01:56:16;14.40;99.90
20845;DHT22;10583;49.084;8.646;2022-12-31T01:58:46;14.40;99.90
20845;DHT22;10583;49.084;8.646;2022-12-31T02:01:17;14.40;99.90
20845;DHT22;10583;49.084;8.646;2022-12-31T02:03:46;14.40;99.90
20845;DHT22;10583;49.084;8.646;2022-12-31T02:06:16;14.40;99.90
20845;DHT22;10583;49.084;8.646;2022-12-31T02:08:44;14.50;99.90
20845;DHT22;10583;49.084;8.646;2022-12-31T02:11:24;14.50;99.90
20845;DHT22;10583;49.084;8.646;2022-12-31T02:13:53;14.60;99.90
20845;DHT22;10583;49.084;8.646;2022-12-31T02:16:24;14.50;99.90
20845;DHT22;10583;49.084;8.646;2022-12-31T02:18:57;14.50;99.90
20845;DHT22;10583;49.084;8.646;2022-12-31T02:21:36;14.50;99.90
20845;DHT22;10583;49.084;8.646;2022-12-31T02:27:14;14.50;99.90
20845;DHT22;10583;49.084;8.646;2022-12-31T02:33:09;14.70;99.90
20845;DHT22;10583;49.084;8.646;2022-12-31T02:35:44;14.70;99.90
20845;DHT22;10583;49.084;8.646;2022-12-31T02:38:15;14.80;99.90
20845;DHT22;10583;49.084;8.646;2022-12-31T02:40:43;14.60;99.90
20845;DHT22;10583;49.084;8.646;2022-12-31T02:43:10;14.50;99.90
20845;DHT22;10583;49.084;8.646;2022-12-31T02:45:38;14.70;99.90
20845;DHT22;10583;49.084;8.646;2022-12-31T02:48:22;14.70;99.90
20845;DHT22;10583;49.084;8.646;2022-12-31T02:50:59;14.80;99.90
20845;DHT22;10583;49.084;8.646;2022-12-31T02:53:48;14.80;99.90
20845;DHT22;10583;49.084;8.646;2022-12-31T02:56:21;14.80;99.90
20845;DHT22;10583;49.084;8.646;2022-12-31T02:59:00;14.80;99.90
20845;DHT22;10583;49.084;8.646;2022-12-31T03:01:49;14.80;99.90
20845;DHT22;10583;49.084;8.646;2022-12-31T03:04:36;14.80;99.90
20845;DHT22;10583;49.084;8.646;2022-12-31T03:07:04;14.90;99.90
20845;DHT22;10583;49.084;8.646;2022-12-31T03:09:32;15.00;99.90
20845;DHT22;10583;49.084;8.646;2022-12-31T03:11:59;14.90;99.90
20845;DHT22;10583;49.084;8.646;2022-12-31T03:14:44;14.90;99.90
20845;DHT22;10583;49.084;8.646;2022-12-31T03:17:11;15.10;99.90
20845;DHT22;10583;49.084;8.646;2022-12-31T03:19:40;15.20;99.90
20845;DHT22;10583;49.084;8.646;2022-12-31T03:22:24;15.10;99.90
20845;DHT22;10583;49.084;8.646;2022-12-31T03:24:54;15.20;99.90
20845;DHT22;10583;49.084;8.646;2022-12-31T03:27:39;15.20;99.90
20845;DHT22;10583;49.084;8.646;2022-12-31T03:30:07;15.10;99.90
20845;DHT22;10583;49.084;8.646;2022-12-31T03:32:33;15.20;99.90
20845;DHT22;10583;49.084;8.646;2022-12-31T03:35:02;15.10;99.90
20845;DHT22;10583;49.084;8.646;2022-12-31T03:37:28;15.10;99.90
20845;DHT22;10583;49.084;8.646;2022-12-31T03:39:55;15.20;99.90
20845;DHT22;10583;49.084;8.646;2022-12-31T03:42:22;15.20;99.90
20845;DHT22;10583;49.084;8.646;2022-12-31T03:44:49;15.40;99.90
20845;DHT22;10583;49.084;8.646;2022-12-31T03:47:15;15.50;99.90
20845;DHT22;10583;49.084;8.646;2022-12-31T03:49:42;15.50;99.90
20845;DHT22;10583;49.084;8.646;2022-12-31T03:52:10;15.50;99.90
20845;DHT22;10583;49.084;8.646;2022-12-31T03:54:37;15.50;99.90
20845;DHT22;10583;49.084;8.646;2022-12-31T03:57:03;15.60;99.90
20845;DHT22;10583;49.084;8.646;2022-12-31T03:59:30;15.60;99.90
20845;DHT22;10583;49.084;8.646;2022-12-31T04:01:57;15.70;99.90
20845;DHT22;10583;49.084;8.646;2022-12-31T04:04:23;15.70;99.90
20845;DHT22;10583;49.084;8.646;2022-12-31T04:06:50;15.80;99.90
20845;DHT22;10583;49.084;8.646;2022-12-31T04:09:18;15.80;99.90
20845;DHT22;10583;49.084;8.646;2022-12-31T04:11:45;15.70;99.90
20845;DHT22;10583;49.084;8.646;2022-12-31T04:14:11;15.60;99.90
20845;DHT22;10583;49.084;8.646;2022-12-31T04:16:38;15.70;99.90
20845;DHT22;10583;49.084;8.646;2022-12-31T04:19:05;15.70;99.90
20845;DHT22;10583;49.084;8.646;2022-12-31T04:21:32;15.60;99.90
20845;DHT22;10583;49.084;8.646;2022-12-31T04:23:59;15.70;99.90
20845;DHT22;10583;49.084;8.646;2022-12-31T04:26:27;15.80;99.90
20845;DHT22;10583;49.084;8.646;2022-12-31T04:28:54;15.70;99.90
20845;DHT22;10583;49.084;8.646;2022-12-31T04:31:21;15.80;99.90
20845;DHT22;10583;49.084;8.646;2022-12-31T04:33:48;15.80;99.90
20845;DHT22;10583;49.084;8.646;2022-12-31T04:36:14;15.80;99.90
20845;DHT22;10583;49.084;8.646;2022-12-31T04:38:41;15.70;99.90
20845;DHT22;10583;49.084;8.646;2022-12-31T04:41:08;15.80;99.90
20845;DHT22;10583;49.084;8.646;2022-12-31T04:43:48;15.80;99.90
20845;DHT22;10583;49.084;8.646;2022-12-31T04:46:16;15.80;99.90
20845;DHT22;10583;49.084;8.646;2022-12-31T04:48:43;15.80;99.90
20845;DHT22;10583;49.084;8.646;2022-12-31T04:51:09;16.00;99.90
20845;DHT22;10583;49.084;8.646;2022-12-31T04:53:36;16.10;99.90
20845;DHT22;10583;49.084;8.646;2022-12-31T04:56:04;16.10;99.90
20845;DHT22;10583;49.084;8.646;2022-12-31T04:58:31;16.10;99.90
20845;DHT22;10583;49.084;8.646;2022-12-31T05:00:59;16.10;99.90
20845;DHT22;10583;49.084;8.646;2022-12-31T05:03:26;16.00;99.90
20845;DHT22;10583;49.084;8.646;2022-12-31T05:05:58;16.00;99.90
20845;DHT22;10583;49.084;8.646;2022-12-31T05:08:25;16.00;99.90
20845;DHT22;10583;49.084;8.646;2022-12-31T05:10:51;16.00;99.90
20845;DHT22;10583;49.084;8.646;2022-12-31T05:13:18;16.00;99.90
20845;DHT22;10583;49.084;8.646;2022-12-31T05:15:45;16.00;99.90
20845;DHT22;10583;49.084;8.646;2022-12-31T05:18:14;16.00;99.90
20845;DHT22;10583;49.084;8.646;2022-12-31T05:20:41;16.00;99.90
20845;DHT22;10583;49.084;8.646;2022-12-31T05:23:08;16.20;99.90
20845;DHT22;10583;49.084;8.646;2022-12-31T05:25:35;16.20;99.90
20845;DHT22;10583;49.084;8.646;2022-12-31T05:28:01;16.20;99.90
20845;DHT22;10583;49.084;8.646;2022-12-31T05:30:28;16.30;99.90
20845;DHT22;10583;49.084;8.646;2022-12-31T05:32:55;16.20;99.90
20845;DHT22;10583;49.084;8.646;2022-12-31T05:35:23;16.30;99.90
20845;DHT22;10583;49.084;8.646;2022-12-31T05:37:49;16.30;99.90
20845;DHT22;10583;49.084;8.646;2022-12-31T05:40:16;16.30;99.90
20845;DHT22;10583;49.084;8.646;2022-12-31T05:42:43;16.30;99.90
20845;DHT22;10583;49.084;8.646;2022-12-31T05:45:10;16.20;99.90
20845;DHT22;10583;49.084;8.646;2022-12-31T05:47:38;16.20;99.90
20845;DHT22;10583;49.084;8.646;2022-12-31T05:50:06;16.20;99.90
20845;DHT22;10583;49.084;8.646;2022-12-31T05:52:34;16.20;99.90
20845;DHT22;10583;49.084;8.646;2022-12-31T05:55:01;16.30;99.90
20845;DHT22;10583;49.084;8.646;2022-12-31T05:57:28;16.20;99.90
20845;DHT22;10583;49.084;8.646;2022-12-31T05:59:55;16.30;99.90
20845;DHT22;10583;49.084;8.646;2022-12-31T06:02:22;16.20;99.90
20845;DHT22;10583;49.084;8.646;2022-12-31T06:04:48;16.20;99.90
20845;DHT22;10583;49.084;8.646;2022-12-31T06:07:15;16.30;99.90
20845;DHT22;10583;49.084;8.646;2022-12-31T06:09:43;16.30;99.90
20845;DHT22;10583;49.084;8.646;2022-12-31T06:12:10;16.20;99.90
20845;DHT22;10583;49.084;8.646;2022-12-31T06:14:36;16.10;99.90
20845;DHT22;10583;49.084;8.646;2022-12-31T06:17:03;16.10;99.90
20845;DHT22;10583;49.084;8.646;2022-12-31T06:19:30;16.00;99.90
20845;DHT22;10583;49.084;8.646;2022-12-31T06:21:56;16.10;99.90
20845;DHT22;10583;49.084;8.646;2022-12-31T06:24:23;16.00;99.90
20845;DHT22;10583;49.084;8.646;2022-12-31T06:26:51;16.00;99.90
20845;DHT22;10583;49.084;8.646;2022-12-31T06:29:18;16.00;99.90
20845;DHT22;10583;49.084;8.646;2022-12-31T06:31:44;15.90;99.90
20845;DHT22;10583;49.084;8.646;2022-12-31T06:34:11;15.70;99.90
20845;DHT22;10583;49.084;8.646;2022-12-31T06:36:38;15.60;99.90
20845;DHT22;10583;49.084;8.646;2022-12-31T06:39:04;15.60;99.90
20845;DHT22;10583;49.084;8.646;2022-12-31T06:41:32;15.60;99.90
20845;DHT22;10583;49.084;8.646;2022-12-31T06:44:00;15.60;99.90
20845;DHT22;10583;49.084;8.646;2022-12-31T06:46:27;15.70;99.90
20845;DHT22;10583;49.084;8.646;2022-12-31T06:48:54;15.70;99.90
20845;DHT22;10583;49.084;8.646;2022-12-31T06:51:21;15.70;99.90
20845;DHT22;10583;49.084;8.646;2022-12-31T06:53:49;15.70;99.90
20845;DHT22;10583;49.084;8.646;2022-12-31T06:56:18;15.70;99.90
20845;DHT22;10583;49.084;8.646;2022-12-31T06:58:45;15.70;99.90
20845;DHT22;10583;49.084;8.646;2022-12-31T07:01:31;15.60;99.90
20845;DHT22;10583;49.084;8.646;2022-12-31T07:04:09;15.60;99.90
20845;DHT22;10583;49.084;8.646;2022-12-31T07:06:43;15.60;99.90
20845;DHT22;10583;49.084;8.646;2022-12-31T07:09:21;15.60;99.90
20845;DHT22;10583;49.084;8.646;2022-12-31T07:11:58;15.60;99.90
20845;DHT22;10583;49.084;8.646;2022-12-31T07:14:32;15.70;99.90
20845;DHT22;10583;49.084;8.646;2022-12-31T07:17:09;15.70;99.90
20845;DHT22;10583;49.084;8.646;2022-12-31T07:19:48;15.70;99.90
20845;DHT22;10583;49.084;8.646;2022-12-31T07:22:19;15.80;99.90
20845;DHT22;10583;49.084;8.646;2022-12-31T07:24:46;15.70;99.90
20845;DHT22;10583;49.084;8.646;2022-12-31T07:27:30;15.70;99.90
20845;DHT22;10583;49.084;8.646;2022-12-31T07:30:03;15.80;99.90
20845;DHT22;10583;49.084;8.646;2022-12-31T07:32:42;15.70;99.90
20845;DHT22;10583;49.084;8.646;2022-12-31T07:35:16;15.80;99.90
20845;DHT22;10583;49.084;8.646;2022-12-31T07:37:53;15.70;99.90
20845;DHT22;10583;49.084;8.646;2022-12-31T07:40:26;15.70;99.90
20845;DHT22;10583;49.084;8.646;2022-12-31T07:43:03;15.80;99.90
20845;DHT22;10583;49.084;8.646;2022-12-31T07:45:34;15.80;99.90
20845;DHT22;10583;49.084;8.646;2022-12-31T07:48:17;15.90;99.90
20845;DHT22;10583;49.084;8.646;2022-12-31T07:50:46;15.90;99.90
20845;DHT22;10583;49.084;8.646;2022-12-31T07:53:13;15.90;99.90
20845;DHT22;10583;49.084;8.646;2022-12-31T07:55:40;16.00;99.90
20845;DHT22;10583;49.084;8.646;2022-12-31T07:58:18;16.00;99.90
20845;DHT22;10583;49.084;8.646;2022-12-31T08:00:45;16.00;99.90
20845;DHT22;10583;49.084;8.646;2022-12-31T08:03:23;16.00;99.90
20845;DHT22;10583;49.084;8.646;2022-12-31T08:05:59;16.10;99.90
20845;DHT22;10583;49.084;8.646;2022-12-31T08:08:37;16.10;99.90
20845;DHT22;10583;49.084;8.646;2022-12-31T08:11:14;16.20;99.90
20845;DHT22;10583;49.084;8.646;2022-12-31T08:13:42;16.10;99.90
20845;DHT22;10583;49.084;8.646;2022-12-31T08:16:11;16.20;99.90
20845;DHT22;10583;49.084;8.646;2022-12-31T08:18:40;16.20;99.90
20845;DHT22;10583;49.084;8.646;2022-12-31T08:21:13;16.10;99.90
20845;DHT22;10583;49.084;8.646;2022-12-31T08:23:48;16.20;99.90
20845;DHT22;10583;49.084;8.646;2022-12-31T08:26:29;16.30;99.90
20845;DHT22;10583;49.084;8.646;2022-12-31T08:29:13;16.40;99.90
20845;DHT22;10583;49.084;8.646;2022-12-31T08:31:47;16.40;99.90
20845;DHT22;10583;49.084;8.646;2022-12-31T08:34:24;16.40;99.90
20845;DHT22;10583;49.084;8.646;2022-12-31T08:36:55;16.40;99.90
20845;DHT22;10583;49.084;8.646;2022-12-31T08:39:35;16.40;99.90
20845;DHT22;10583;49.084;8.646;2022-12-31T08:42:16;16.40;99.90
20845;DHT22;10583;49.084;8.646;2022-12-31T08:44:48;16.50;99.90
20845;DHT22;10583;49.084;8.646;2022-12-31T08:47:23;16.50;99.90
20845;DHT22;10583;49.084;8.646;2022-12-31T08:49:53;16.60;99.90
20845;DHT22;10583;49.084;8.646;2022-12-31T08:52:23;16.60;99.90
20845;DHT22;10583;49.084;8.646;2022-12-31T08:54:50;16.60;99.90
20845;DHT22;10583;49.084;8.646;2022-12-31T08:57:22;16.60;99.90
20845;DHT22;10583;49.084;8.646;2022-12-31T09:00:01;16.60;99.90
20845;DHT22;10583;49.084;8.646;2022-12-31T09:02:47;16.80;99.90
20845;DHT22;10583;49.084;8.646;2022-12-31T09:05:22;16.90;99.90
20845;DHT22;10583;49.084;8.646;2022-12-31T09:07:57;17.10;99.90
20845;DHT22;10583;49.084;8.646;2022-12-31T09:10:28;17.10;99.90
20845;DHT22;10583;49.084;8.646;2022-12-31T09:13:01;17.20;99.90
20845;DHT22;10583;49.084;8.646;2022-12-31T09:15:36;17.20;99.90
20845;DHT22;10583;49.084;8.646;2022-12-31T09:18:07;17.20;99.90
20845;DHT22;10583;49.084;8.646;2022-12-31T09:20:36;17.20;99.90
20845;DHT22;10583;49.084;8.646;2022-12-31T09:23:04;17.10;99.90
20845;DHT22;10583;49.084;8.646;2022-12-31T09:25:31;17.10;99.90
20845;DHT22;10583;49.084;8.646;2022-12-31T09:28:12;17.20;99.90
20845;DHT22;10583;49.084;8.646;2022-12-31T09:30:47;17.30;99.90
20845;DHT22;10583;49.084;8.646;2022-12-31T09:33:26;17.40;99.90
20845;DHT22;10583;49.084;8.646;2022-12-31T09:36:01;17.50;99.90
20845;DHT22;10583;49.084;8.646;2022-12-31T09:38:35;17.50;99.90
20845;DHT22;10583;49.084;8.646;2022-12-31T09:41:12;17.60;99.90
20845;DHT22;10583;49.084;8.646;2022-12-31T09:44:16;17.90;99.90
20845;DHT22;10583;49.084;8.646;2022-12-31T09:55:51;18.50;99.90
20845;DHT22;10583;49.084;8.646;2022-12-31T09:58:36;18.50;99.90
20845;DHT22;10583;49.084;8.646;2022-12-31T10:01:15;18.40;99.90
20845;DHT22;10583;49.084;8.646;2022-12-31T10:04:09;18.20;99.90
20845;DHT22;10583;49.084;8.646;2022-12-31T10:06:46;18.30;99.90
20845;DHT22;10583;49.084;8.646;2022-12-31T10:09:54;18.60;99.90
20845;DHT22;10583;49.084;8.646;2022-12-31T10:12:53;18.80;99.90
20845;DHT22;10583;49.084;8.646;2022-12-31T10:15:57;18.90;99.90
20845;DHT22;10583;49.084;8.646;2022-12-31T10:18:43;19.20;99.90
20845;DHT22;10583;49.084;8.646;2022-12-31T10:21:27;19.30;99.90
20845;DHT22;10583;49.084;8.646;2022-12-31T10:24:22;19.30;99.90
20845;DHT22;10583;49.084;8.646;2022-12-31T10:27:07;19.40;99.90
20845;DHT22;10583;49.084;8.646;2022-12-31T10:29:43;19.40;99.90
20845;DHT22;10583;49.084;8.646;2022-12-31T10:32:17;19.40;99.90
20845;DHT22;10583;49.084;8.646;2022-12-31T10:34:53;19.60;99.90
20845;DHT22;10583;49.084;8.646;2022-12-31T10:37:24;19.50;99.90
20845;DHT22;10583;49.084;8.646;2022-12-31T10:40:03;19.60;99.90
20845;DHT22;10583;49.084;8.646;2022-12-31T10:46:11;19.70;99.90
20845;DHT22;10583;49.084;8.646;2022-12-31T10:49:04;19.50;99.90
20845;DHT22;10583;49.084;8.646;2022-12-31T10:52:00;19.60;99.90
20845;DHT22;10583;49.084;8.646;2022-12-31T10:54:59;19.60;99.90
20845;DHT22;10583;49.084;8.646;2022-12-31T10:57:51;19.50;99.90
20845;DHT22;10583;49.084;8.646;2022-12-31T11:00:27;19.50;99.90
20845;DHT22;10583;49.084;8.646;2022-12-31T11:09:41;19.40;99.90
20845;DHT22;10583;49.084;8.646;2022-12-31T11:12:23;19.40;99.90
20845;DHT22;10583;49.084;8.646;2022-12-31T11:15:11;19.40;99.90
20845;DHT22;10583;49.084;8.646;2022-12-31T11:17:47;19.50;99.90
20845;DHT22;10583;49.084;8.646;2022-12-31T11:20:26;19.60;99.90
20845;DHT22;10583;49.084;8.646;2022-12-31T11:23:03;19.70;99.90
20845;DHT22;10583;49.084;8.646;2022-12-31T11:25:46;19.80;99.90
20845;DHT22;10583;49.084;8.646;2022-12-31T11:28:40;19.80;99.90
20845;DHT22;10583;49.084;8.646;2022-12-31T11:31:22;20.00;99.90
20845;DHT22;10583;49.084;8.646;2022-12-31T11:34:04;20.20;99.90
20845;DHT22;10583;49.084;8.646;2022-12-31T11:36:40;20.10;99.90
20845;DHT22;10583;49.084;8.646;2022-12-31T11:39:35;20.20;99.90
20845;DHT22;10583;49.084;8.646;2022-12-31T11:42:14;20.10;99.90
20845;DHT22;10583;49.084;8.646;2022-12-31T11:44:45;20.00;99.90
20845;DHT22;10583;49.084;8.646;2022-12-31T11:47:42;20.20;99.90
20845;DHT22;10583;49.084;8.646;2022-12-31T11:50:25;20.40;99.90
20845;DHT22;10583;49.084;8.646;2022-12-31T11:52:59;20.70;99.90
20845;DHT22;10583;49.084;8.646;2022-12-31T11:55:34;20.60;99.90
20845;DHT22;10583;49.084;8.646;2022-12-31T11:58:11;20.60;99.90
20845;DHT22;10583;49.084;8.646;2022-12-31T12:00:44;20.60;99.90
20845;DHT22;10583;49.084;8.646;2022-12-31T12:03:14;20.70;99.90
20845;DHT22;10583;49.084;8.646;2022-12-31T12:05:40;20.60;99.90
20845;DHT22;10583;49.084;8.646;2022-12-31T12:08:07;20.70;99.90
20845;DHT22;10583;49.084;8.646;2022-12-31T12:10:39;20.60;99.90
20845;DHT22;10583;49.084;8.646;2022-12-31T12:13:13;20.60;99.90
20845;DHT22;10583;49.084;8.646;2022-12-31T12:15:43;20.80;99.90
20845;DHT22;10583;49.084;8.646;2022-12-31T12:18:24;20.80;99.90
20845;DHT22;10583;49.084;8.646;2022-12-31T12:20:59;20.70;99.90
20845;DHT22;10583;49.084;8.646;2022-12-31T12:23:26;20.60;99.90
20845;DHT22;10583;49.084;8.646;2022-12-31T12:25:53;20.70;99.90
20845;DHT22;10583;49.084;8.646;2022-12-31T12:28:20;20.70;99.90
20845;DHT22;10583;49.084;8.646;2022-12-31T12:30:57;20.70;99.90
20845;DHT22;10583;49.084;8.646;2022-12-31T12:33:27;20.60;99.90
20845;DHT22;10583;49.084;8.646;2022-12-31T12:36:05;20.60;99.90
20845;DHT22;10583;49.084;8.646;2022-12-31T12:38:32;20.50;99.90
20845;DHT22;10583;49.084;8.646;2022-12-31T12:41:01;20.50;99.90
20845;DHT22;10583;49.084;8.646;2022-12-31T12:43:30;20.30;99.90
20845;DHT22;10583;49.084;8.646;2022-12-31T12:45:59;20.30;99.90
20845;DHT22;10583;49.084;8.646;2022-12-31T12:48:34;20.30;99.90
20845;DHT22;10583;49.084;8.646;2022-12-31T12:51:14;20.10;99.90
20845;DHT22;10583;49.084;8.646;2022-12-31T12:53:50;20.00;99.90
20845;DHT22;10583;49.084;8.646;2022-12-31T12:56:29;19.90;99.90
20845;DHT22;10583;49.084;8.646;2022-12-31T12:59:24;19.80;99.90
20845;DHT22;10583;49.084;8.646;2022-12-31T13:02:00;19.80;99.90
20845;DHT22;10583;49.084;8.646;2022-12-31T13:04:45;19.70;99.90
20845;DHT22;10583;49.084;8.646;2022-12-31T13:07:22;19.60;99.90
20845;DHT22;10583;49.084;8.646;2022-12-31T13:10:06;19.50;99.90
20845;DHT22;10583;49.084;8.646;2022-12-31T13:12:40;19.50;99.90
20845;DHT22;10583;49.084;8.646;2022-12-31T13:15:11;19.40;99.90
20845;DHT22;10583;49.084;8.646;2022-12-31T13:17:52;19.40;99.90
20845;DHT22;10583;49.084;8.646;2022-12-31T13:20:28;19.40;99.90
20845;DHT22;10583;49.084;8.646;2022-12-31T13:23:02;19.30;99.90
20845;DHT22;10583;49.084;8.646;2022-12-31T13:25:34;19.20;99.90
20845;DHT22;10583;49.084;8.646;2022-12-31T13:28:03;19.20;99.90
20845;DHT22;10583;49.084;8.646;2022-12-31T13:30:34;19.20;99.90
20845;DHT22;10583;49.084;8.646;2022-12-31T13:33:06;19.10;99.90
20845;DHT22;10583;49.084;8.646;2022-12-31T13:35:40;19.10;99.90
20845;DHT22;10583;49.084;8.646;2022-12-31T13:38:13;19.10;99.90
20845;DHT22;10583;49.084;8.646;2022-12-31T13:40:45;18.90;99.90
20845;DHT22;10583;49.084;8.646;2022-12-31T13:43:18;18.90;99.90
20845;DHT22;10583;49.084;8.646;2022-12-31T13:45:59;18.90;99.90
20845;DHT22;10583;49.084;8.646;2022-12-31T13:48:33;18.80;99.90
20845;DHT22;10583;49.084;8.646;2022-12-31T13:51:06;18.70;99.90
20845;DHT22;10583;49.084;8.646;2022-12-31T13:53:40;18.70;99.90
20845;DHT22;10583;49.084;8.646;2022-12-31T13:56:12;18.60;99.90
20845;DHT22;10583;49.084;8.646;2022-12-31T13:58:44;18.60;99.90
20845;DHT22;10583;49.084;8.646;2022-12-31T14:01:14;18.60;99.90
20845;DHT22;10583;49.084;8.646;2022-12-31T14:03:49;18.50;99.90
20845;DHT22;10583;49.084;8.646;2022-12-31T14:06:24;18.50;99.90
20845;DHT22;10583;49.084;8.646;2022-12-31T14:08:52;18.40;99.90
20845;DHT22;10583;49.084;8.646;2022-12-31T14:11:28;18.40;99.90
20845;DHT22;10583;49.084;8.646;2022-12-31T14:14:06;18.30;99.90
20845;DHT22;10583;49.084;8.646;2022-12-31T14:16:44;18.20;99.90
20845;DHT22;10583;49.084;8.646;2022-12-31T14:19:19;18.30;99.90
20845;DHT22;10583;49.084;8.646;2022-12-31T14:21:55;18.20;99.90
20845;DHT22;10583;49.084;8.646;2022-12-31T14:24:33;18.20;99.90
20845;DHT22;10583;49.084;8.646;2022-12-31T14:27:05;18.10;99.90
20845;DHT22;10583;49.084;8.646;2022-12-31T14:29:38;18.10;99.90
20845;DHT22;10583;49.084;8.646;2022-12-31T14:32:25;18.10;99.90
20845;DHT22;10583;49.084;8.646;2022-12-31T14:35:04;18.00;99.90
20845;DHT22;10583;49.084;8.646;2022-12-31T14:37:45;17.90;99.90
20845;DHT22;10583;49.084;8.646;2022-12-31T14:40:19;17.90;99.90
20845;DHT22;10583;49.084;8.646;2022-12-31T14:42:53;17.80;99.90
20845;DHT22;10583;49.084;8.646;2022-12-31T14:45:29;17.70;99.90
20845;DHT22;10583;49.084;8.646;2022-12-31T14:48:03;17.50;99.90
20845;DHT22;10583;49.084;8.646;2022-12-31T14:50:33;17.50;99.90
20845;DHT22;10583;49.084;8.646;2022-12-31T14:53:14;17.40;99.90
20845;DHT22;10583;49.084;8.646;2022-12-31T14:55:42;17.50;99.90
20845;DHT22;10583;49.084;8.646;2022-12-31T14:58:20;17.70;99.90
20845;DHT22;10583;49.084;8.646;2022-12-31T15:00:52;17.70;99.90
20845;DHT22;10583;49.084;8.646;2022-12-31T15:03:25;17.70;99.90
20845;DHT22;10583;49.084;8.646;2022-12-31T15:05:53;17.60;99.90
20845;DHT22;10583;49.084;8.646;2022-12-31T15:08:46;17.60;99.90
20845;DHT22;10583;49.084;8.646;2022-12-31T15:11:22;17.50;99.90
20845;DHT22;10583;49.084;8.646;2022-12-31T15:14:12;17.40;99.90
20845;DHT22;10583;49.084;8.646;2022-12-31T15:16:46;17.30;99.90
20845;DHT22;10583;49.084;8.646;2022-12-31T15:22:33;17.00;99.90
20845;DHT22;10583;49.084;8.646;2022-12-31T15:25:21;17.00;99.90
20845;DHT22;10583;49.084;8.646;2022-12-31T15:27:49;17.10;99.90
20845;DHT22;10583;49.084;8.646;2022-12-31T15:30:32;17.20;99.90
20845;DHT22;10583;49.084;8.646;2022-12-31T15:33:03;17.20;99.90
20845;DHT22;10583;49.084;8.646;2022-12-31T15:35:43;17.20;99.90
20845;DHT22;10583;49.084;8.646;2022-12-31T15:38:31;17.30;99.90
20845;DHT22;10583;49.084;8.646;2022-12-31T15:41:00;17.20;99.90
20845;DHT22;10583;49.084;8.646;2022-12-31T15:43:33;17.00;99.90
20845;DHT22;10583;49.084;8.646;2022-12-31T15:46:06;17.00;99.90
20845;DHT22;10583;49.084;8.646;2022-12-31T15:48:40;17.00;99.90
20845;DHT22;10583;49.084;8.646;2022-12-31T15:51:14;17.00;99.90
20845;DHT22;10583;49.084;8.646;2022-12-31T15:53:45;16.90;99.90
20845;DHT22;10583;49.084;8.646;2022-12-31T15:56:22;16.90;99.90
20845;DHT22;10583;49.084;8.646;2022-12-31T15:58:56;16.80;99.90
20845;DHT22;10583;49.084;8.646;2022-12-31T16:01:26;16.80;99.90
20845;DHT22;10583;49.084;8.646;2022-12-31T16:03:56;16.90;99.90
20845;DHT22;10583;49.084;8.646;2022-12-31T16:06:26;16.80;99.90
20845;DHT22;10583;49.084;8.646;2022-12-31T16:08:54;16.80;99.90
20845;DHT22;10583;49.084;8.646;2022-12-31T16:11:22;16.90;99.90
20845;DHT22;10583;49.084;8.646;2022-12-31T16:13:53;16.90;99.90
20845;DHT22;10583;49.084;8.646;2022-12-31T16:16:21;16.90;99.90
20845;DHT22;10583;49.084;8.646;2022-12-31T16:18:49;17.10;99.90
20845;DHT22;10583;49.084;8.646;2022-12-31T16:21:27;17.10;99.90
20845;DHT22;10583;49.084;8.646;2022-12-31T16:23:56;17.00;99.90
20845;DHT22;10583;49.084;8.646;2022-12-31T16:26:29;17.00;99.90
20845;DHT22;10583;49.084;8.646;2022-12-31T16:28:57;16.90;99.90
20845;DHT22;10583;49.084;8.646;2022-12-31T16:31:26;17.00;99.90
20845;DHT22;10583;49.084;8.646;2022-12-31T16:34:02;17.10;99.90
20845;DHT22;10583;49.084;8.646;2022-12-31T16:36:29;17.20;99.90